createdAt,value
2019-03-13T00:00:03.716Z,136.12
2019-03-13T00:02:42.585Z,136.43
2019-03-13T00:05:19.225Z,135.17
2019-03-13T00:07:56.568Z,140.33
2019-03-13T00:10:33.105Z,133.78
2019-03-13T00:13:09.584Z,134.05
2019-03-13T00:15:49.545Z,140.70
2019-03-13T00:18:24.523Z,144.00
2019-03-13T00:21:01.168Z,150.00
2019-03-13T00:23:37.831Z,135.50
2019-03-13T00:26:15.152Z,155.03
2019-03-13T00:28:51.812Z,152.35
2019-03-13T00:31:28.381Z,142.98
2019-03-13T00:34:04.748Z,144.68
2019-03-13T00:36:41.742Z,144.62
2019-03-13T00:39:18.812Z,152.50
2019-03-13T00:41:56.057Z,153.25
2019-03-13T00:44:33.116Z,149.93
2019-03-13T00:47:09.833Z,156.28
2019-03-13T00:49:46.637Z,144.13
2019-03-13T00:52:22.875Z,150.62
2019-03-13T00:54:59.766Z,151.18
2019-03-13T00:57:36.561Z,152.47
2019-03-13T01:00:15.010Z,153.12
2019-03-13T01:02:51.633Z,149.75
2019-03-13T01:05:34.027Z,148.30
2019-03-13T01:08:10.919Z,145.43
2019-03-13T01:10:47.482Z,142.18
2019-03-13T01:13:24.336Z,142.82
2019-03-13T01:16:01.552Z,153.50
2019-03-13T01:18:38.243Z,159.43
2019-03-13T01:21:14.937Z,160.37
2019-03-13T01:23:52.403Z,157.55
2019-03-13T01:26:29.370Z,170.97
2019-03-13T01:29:05.612Z,168.80
2019-03-13T01:32:08.815Z,174.72
2019-03-13T01:34:50.894Z,173.10
2019-03-13T01:37:27.938Z,173.32
2019-03-13T01:40:04.350Z,176.37
2019-03-13T01:42:42.435Z,177.95
2019-03-13T01:45:19.102Z,179.35
2019-03-13T01:47:56.793Z,179.00
2019-03-13T01:50:33.547Z,178.12
2019-03-13T01:53:10.361Z,180.37
2019-03-13T01:55:48.625Z,181.30
2019-03-13T01:58:25.598Z,180.22
2019-03-13T02:01:02.606Z,179.32
2019-03-13T02:03:39.856Z,181.07
2019-03-13T02:06:16.641Z,172.40
2019-03-13T02:08:53.922Z,177.62
2019-03-13T02:11:31.044Z,167.18
2019-03-13T02:14:07.979Z,170.02
2019-03-13T02:16:44.875Z,167.07
2019-03-13T02:19:22.075Z,161.75
2019-03-13T02:21:58.651Z,162.43
2019-03-13T02:24:35.404Z,160.97
2019-03-13T02:27:12.108Z,162.27
2019-03-13T02:29:49.742Z,166.97
2019-03-13T02:32:26.675Z,164.45
2019-03-13T02:35:03.580Z,164.55
2019-03-13T02:37:41.345Z,172.00
2019-03-13T02:40:18.299Z,175.57
2019-03-13T02:42:54.986Z,170.28
2019-03-13T02:45:32.216Z,175.62
2019-03-13T02:48:08.926Z,174.25
2019-03-13T02:50:45.435Z,173.20
2019-03-13T02:53:22.104Z,173.62
2019-03-13T02:55:58.607Z,169.77
2019-03-13T02:58:35.356Z,166.80
2019-03-13T03:01:29.535Z,172.75
2019-03-13T03:04:08.765Z,167.62
2019-03-13T03:06:45.577Z,166.22
2019-03-13T03:09:22.205Z,171.55
2019-03-13T03:11:59.010Z,164.93
2019-03-13T03:14:36.115Z,163.85
2019-03-13T03:17:12.807Z,164.88
2019-03-13T03:19:49.594Z,162.88
2019-03-13T03:22:26.357Z,161.30
2019-03-13T03:25:03.505Z,158.97
2019-03-13T03:27:39.724Z,164.67
2019-03-13T03:30:19.223Z,156.00
2019-03-13T03:32:55.804Z,155.55
2019-03-13T03:35:32.603Z,153.00
2019-03-13T03:38:11.690Z,151.63
2019-03-13T03:40:48.249Z,153.30
2019-03-13T03:43:39.528Z,150.95
2019-03-13T03:46:02.507Z,150.12
2019-03-13T03:48:39.729Z,149.90
2019-03-13T03:51:17.633Z,150.25
2019-03-13T03:53:54.043Z,147.72
2019-03-13T03:56:31.094Z,151.87
2019-03-13T03:59:07.842Z,150.30
2019-03-13T04:01:44.808Z,145.45
2019-03-13T04:04:21.115Z,145.22
2019-03-13T04:06:59.611Z,144.60
2019-03-13T04:09:35.901Z,145.25
2019-03-13T04:12:14.054Z,139.82
2019-03-13T04:14:50.789Z,142.10
2019-03-13T04:17:27.527Z,139.10
2019-03-13T04:20:04.038Z,137.15
2019-03-13T04:22:41.723Z,133.47
2019-03-13T04:25:35.522Z,133.65
2019-03-13T04:28:13.080Z,136.70
2019-03-13T04:30:50.331Z,128.95
2019-03-13T04:33:28.377Z,128.78
2019-03-13T04:36:05.217Z,128.95
2019-03-13T04:38:41.779Z,127.60
2019-03-13T04:41:18.258Z,125.82
2019-03-13T04:43:56.463Z,124.53
2019-03-13T04:46:32.994Z,121.53
2019-03-13T04:49:10.574Z,122.33
2019-03-13T04:51:47.276Z,115.67
2019-03-13T04:54:24.457Z,113.90
2019-03-13T04:57:01.162Z,103.78
2019-03-13T04:59:37.759Z,105.75
2019-03-13T05:02:14.296Z,103.15
2019-03-13T05:04:51.498Z,98.07
2019-03-13T05:07:28.172Z,98.12
2019-03-13T05:10:04.544Z,78.02
2019-03-13T05:12:41.233Z,69.25
2019-03-13T05:15:17.863Z,79.17
2019-03-13T05:17:58.380Z,74.87
2019-03-13T05:20:35.166Z,58.42
2019-03-13T05:23:11.772Z,54.55
2019-03-13T05:25:52.126Z,53.17
2019-03-13T05:28:30.300Z,53.48
2019-03-13T05:31:07.194Z,53.15
2019-03-13T05:33:43.948Z,55.17
2019-03-13T05:36:20.834Z,57.15
2019-03-13T05:38:57.776Z,56.33
2019-03-13T05:41:34.849Z,52.90
2019-03-13T05:44:12.159Z,53.68
2019-03-13T05:46:49.343Z,53.40
2019-03-13T05:49:25.994Z,52.88
2019-03-13T05:52:02.876Z,53.30
2019-03-13T05:54:40.290Z,52.40
2019-03-13T05:57:16.964Z,50.55
2019-03-13T05:59:53.791Z,51.95
2019-03-13T06:02:30.842Z,51.35
2019-03-13T06:05:08.086Z,53.42
2019-03-13T06:07:45.527Z,52.58
2019-03-13T06:10:21.856Z,50.40
2019-03-13T06:12:58.969Z,50.08
2019-03-13T06:15:36.514Z,49.50
2019-03-13T06:18:13.673Z,45.90
2019-03-13T06:20:50.315Z,45.67
2019-03-13T06:23:27.490Z,43.25
2019-03-13T06:26:04.155Z,41.83
2019-03-13T06:28:42.473Z,41.40
2019-03-13T06:31:19.551Z,42.58
2019-03-13T06:33:57.125Z,45.35
2019-03-13T06:36:33.590Z,44.18
2019-03-13T06:39:11.011Z,44.93
2019-03-13T06:41:47.582Z,47.17
2019-03-13T06:44:24.419Z,48.98
2019-03-13T06:47:01.661Z,45.55
2019-03-13T06:49:38.301Z,45.43
2019-03-13T06:52:14.391Z,44.30
2019-03-13T06:54:51.940Z,44.20
2019-03-13T07:01:39.589Z,64.42
2019-03-13T07:04:46.972Z,64.25
2019-03-13T07:07:32.812Z,63.50
2019-03-13T07:10:17.659Z,64.75
2019-03-13T07:13:12.016Z,65.05
2019-03-13T07:16:12.962Z,64.22
2019-03-13T07:19:10.716Z,63.65
2019-03-13T07:22:14.530Z,63.17
2019-03-13T07:25:14.857Z,59.83
2019-03-13T07:28:09.770Z,58.40
2019-03-13T07:31:01.303Z,56.98
2019-03-13T07:33:54.959Z,51.68
2019-03-13T07:36:49.671Z,50.28
2019-03-13T07:39:48.413Z,48.60
2019-03-13T07:42:52.356Z,47.73
2019-03-13T07:45:42.276Z,45.28
2019-03-13T07:48:35.916Z,45.30
2019-03-13T07:51:30.766Z,45.80
2019-03-13T07:54:22.469Z,45.08
2019-03-13T07:57:24.420Z,44.42
2019-03-13T08:00:17.882Z,45.20
2019-03-13T08:03:12.861Z,44.30
2019-03-13T08:06:16.385Z,44.58
2019-03-13T08:09:09.671Z,44.83
2019-03-13T08:12:13.356Z,44.13
2019-03-13T08:15:06.948Z,44.48
2019-03-13T08:18:02.065Z,43.15
2019-03-13T08:21:02.881Z,43.50
2019-03-13T08:23:56.048Z,41.48
2019-03-13T08:26:40.571Z,43.23
2019-03-13T08:29:35.083Z,40.58
2019-03-13T08:32:28.757Z,40.28
2019-03-13T08:35:26.131Z,39.65
2019-03-13T08:38:08.344Z,40.43
2019-03-13T08:40:56.781Z,41.02
2019-03-13T08:43:49.846Z,38.63
2019-03-13T08:46:52.023Z,39.08
2019-03-13T08:49:52.841Z,39.38
2019-03-13T08:52:47.970Z,38.38
2019-03-13T08:55:42.802Z,37.08
2019-03-13T08:58:37.036Z,35.40
2019-03-13T09:01:29.824Z,35.05
2019-03-13T09:04:25.099Z,34.65
2019-03-13T09:07:22.778Z,32.50
2019-03-13T09:10:07.626Z,33.33
2019-03-13T09:12:53.916Z,33.18
2019-03-13T09:15:39.193Z,33.40
2019-03-13T09:18:24.619Z,32.42
2019-03-13T09:21:19.300Z,31.68
2019-03-13T09:28:20.272Z,28.50
2019-03-13T09:31:07.532Z,28.77
2019-03-13T09:33:52.744Z,28.45
2019-03-13T09:36:47.811Z,27.42
2019-03-13T09:39:42.346Z,25.70
2019-03-13T09:42:47.240Z,25.15
2019-03-13T09:45:55.008Z,24.50
2019-03-13T09:48:40.406Z,24.18
2019-03-13T09:51:28.953Z,24.32
2019-03-13T09:54:20.222Z,24.27
2019-03-13T09:57:24.153Z,22.80
2019-03-13T10:00:22.061Z,83.92
2019-03-13T10:03:19.808Z,23.75
2019-03-13T10:06:05.781Z,410.23
2019-03-13T10:09:09.612Z,240.32
2019-03-13T10:12:08.008Z,59.88
2019-03-13T10:14:55.476Z,35.40
2019-03-13T10:17:43.442Z,35.80
2019-03-13T10:20:47.513Z,25.82
2019-03-13T10:23:49.857Z,21.77
2019-03-13T10:26:47.309Z,20.80
2019-03-13T10:29:33.818Z,21.02
2019-03-13T10:32:26.476Z,20.25
2019-03-13T10:35:23.705Z,21.52
2019-03-13T10:38:16.875Z,22.17
2019-03-13T10:41:03.831Z,28.27
2019-03-13T10:44:01.393Z,23.45
2019-03-13T10:46:47.192Z,24.32
2019-03-13T10:49:44.330Z,24.75
2019-03-13T10:52:42.383Z,25.35
2019-03-13T10:55:26.323Z,25.68
2019-03-13T10:58:36.478Z,34.85
2019-03-13T11:01:29.152Z,30.90
2019-03-13T11:04:22.936Z,26.23
2019-03-13T11:07:23.746Z,25.60
2019-03-13T11:10:17.431Z,23.98
2019-03-13T11:13:07.936Z,24.70
2019-03-13T11:16:21.861Z,25.90
2019-03-13T11:19:13.832Z,22.17
2019-03-13T11:22:06.008Z,22.00
2019-03-13T11:24:49.351Z,21.85
2019-03-13T11:27:44.590Z,23.15
2019-03-13T11:30:49.238Z,23.47
2019-03-13T11:34:03.158Z,22.93
2019-03-13T11:37:01.394Z,22.65
2019-03-13T11:39:49.982Z,23.30
2019-03-13T11:42:42.630Z,24.05
2019-03-13T11:45:44.092Z,23.87
2019-03-13T11:48:44.843Z,24.72
2019-03-13T11:51:37.734Z,23.30
2019-03-13T11:54:34.806Z,24.30
2019-03-13T11:57:21.906Z,26.02
2019-03-13T12:00:08.673Z,25.52
2019-03-13T12:02:52.962Z,27.65
2019-03-13T12:05:37.681Z,26.93
2019-03-13T12:08:31.630Z,28.57
2019-03-13T12:11:15.103Z,29.57
2019-03-13T12:14:10.666Z,30.20
2019-03-13T12:17:14.937Z,31.48
2019-03-13T12:20:09.750Z,32.78
2019-03-13T12:23:15.985Z,33.92
2019-03-13T12:26:10.815Z,33.50
2019-03-13T12:29:04.064Z,35.60
2019-03-13T12:31:58.759Z,36.58
2019-03-13T12:34:51.735Z,36.73
2019-03-13T12:37:45.226Z,38.23
2019-03-13T12:40:56.062Z,39.48
2019-03-13T12:43:51.475Z,36.98
2019-03-13T12:46:35.498Z,35.90
2019-03-13T12:49:23.624Z,36.55
2019-03-13T12:52:31.894Z,35.05
2019-03-13T12:55:26.124Z,33.50
2019-03-13T12:58:20.236Z,35.05
2019-03-13T13:01:21.002Z,32.38
2019-03-13T13:04:15.486Z,32.60
2019-03-13T13:07:07.660Z,32.55
2019-03-13T13:10:13.577Z,32.85
2019-03-13T13:13:16.670Z,30.88
2019-03-13T13:16:12.096Z,32.70
2019-03-13T13:18:58.203Z,32.03
2019-03-13T13:21:35.565Z,30.32
2019-03-13T13:24:11.615Z,29.60
2019-03-13T13:26:50.383Z,29.57
2019-03-13T13:29:27.057Z,29.98
2019-03-13T13:32:03.812Z,28.47
2019-03-13T13:34:39.951Z,28.47
2019-03-13T13:37:16.869Z,25.97
2019-03-13T13:39:53.043Z,25.52
2019-03-13T13:42:29.565Z,25.48
2019-03-13T13:45:06.634Z,24.92
2019-03-13T13:47:43.302Z,24.43
2019-03-13T13:50:19.697Z,23.87
2019-03-13T13:52:56.776Z,23.67
2019-03-13T13:55:33.656Z,23.12
2019-03-13T13:58:10.540Z,23.15
2019-03-13T14:00:47.085Z,24.18
2019-03-13T14:03:24.715Z,21.57
2019-03-13T14:06:01.359Z,22.52
2019-03-13T14:08:38.235Z,22.58
2019-03-13T14:11:14.726Z,22.27
2019-03-13T14:13:51.215Z,22.62
2019-03-13T14:16:27.928Z,22.30
2019-03-13T14:19:04.622Z,22.50
2019-03-13T14:21:41.476Z,21.52
2019-03-13T14:24:17.999Z,21.25
2019-03-13T14:26:55.087Z,21.82
2019-03-13T14:29:31.518Z,21.40
2019-03-13T14:32:08.242Z,21.23
2019-03-13T14:34:45.757Z,22.10
2019-03-13T14:37:22.394Z,21.12
2019-03-13T14:40:16.853Z,20.80
2019-03-13T14:42:53.643Z,21.90
2019-03-13T14:45:30.408Z,22.02
2019-03-13T14:48:07.241Z,21.90
2019-03-13T14:50:43.921Z,21.12
2019-03-13T14:53:20.806Z,21.97
2019-03-13T14:55:57.977Z,22.65
2019-03-13T14:58:34.717Z,24.18
2019-03-13T15:01:11.619Z,25.48
2019-03-13T15:03:47.801Z,32.90
2019-03-13T15:06:24.660Z,27.32
2019-03-13T15:09:01.055Z,28.70
2019-03-13T15:11:39.552Z,30.35
2019-03-13T15:14:16.370Z,29.77
2019-03-13T15:16:53.496Z,30.55
2019-03-13T15:19:30.680Z,28.45
2019-03-13T15:22:07.853Z,27.37
2019-03-13T15:24:44.659Z,29.60
2019-03-13T15:27:21.074Z,28.83
2019-03-13T15:29:58.506Z,31.55
2019-03-13T15:32:35.176Z,33.55
2019-03-13T15:35:12.210Z,30.25
2019-03-13T15:37:48.843Z,33.18
2019-03-13T15:40:26.856Z,30.52
2019-03-13T15:43:06.507Z,31.45
2019-03-13T15:45:43.418Z,31.20
2019-03-13T15:48:19.794Z,29.20
2019-03-13T15:50:57.179Z,30.55
2019-03-13T15:53:33.875Z,29.00
2019-03-13T15:56:10.900Z,30.88
2019-03-13T15:58:47.789Z,31.15
2019-03-13T16:01:24.815Z,30.37
2019-03-13T16:04:01.517Z,32.42
2019-03-13T16:06:38.121Z,32.93
2019-03-13T16:09:15.058Z,30.55
2019-03-13T16:11:52.050Z,35.20
2019-03-13T16:14:29.164Z,33.95
2019-03-13T16:17:06.106Z,31.20
2019-03-13T16:19:42.419Z,31.73
2019-03-13T16:22:20.233Z,31.45
2019-03-13T16:24:56.391Z,34.83
2019-03-13T16:27:32.973Z,35.75
2019-03-13T16:30:11.428Z,38.00
2019-03-13T16:32:48.128Z,36.63
2019-03-13T16:35:26.463Z,37.00
2019-03-13T16:38:02.783Z,37.38
2019-03-13T16:40:39.334Z,37.48
2019-03-13T16:43:16.046Z,38.28
2019-03-13T16:45:52.629Z,40.00
2019-03-13T16:48:29.589Z,38.83
2019-03-13T16:51:07.248Z,40.43
2019-03-13T16:53:44.387Z,39.78
2019-03-13T16:56:21.261Z,40.65
2019-03-13T16:58:58.374Z,38.50
2019-03-13T17:01:35.093Z,39.08
2019-03-13T17:04:12.376Z,40.75
2019-03-13T17:06:48.851Z,40.50
2019-03-13T17:09:25.179Z,39.95
2019-03-13T17:12:01.866Z,38.92
2019-03-13T17:14:38.739Z,38.02
2019-03-13T17:17:15.305Z,38.17
2019-03-13T17:19:53.142Z,41.05
2019-03-13T17:22:30.013Z,38.08
2019-03-13T17:25:07.455Z,41.80
2019-03-13T17:27:44.966Z,39.65
2019-03-13T17:30:26.009Z,39.40
2019-03-13T17:33:03.403Z,37.98
2019-03-13T17:35:40.453Z,41.25
2019-03-13T17:38:17.144Z,38.08
2019-03-13T17:40:53.846Z,40.20
2019-03-13T17:43:39.012Z,39.90
2019-03-13T17:46:09.171Z,39.55
2019-03-13T17:48:46.207Z,39.42
2019-03-13T17:51:22.784Z,40.35
2019-03-13T17:53:59.362Z,39.70
2019-03-13T17:56:36.280Z,40.08
2019-03-13T17:59:13.486Z,40.17
2019-03-13T18:01:50.477Z,39.25
2019-03-13T18:04:27.187Z,41.83
2019-03-13T18:07:04.023Z,40.20
2019-03-13T18:09:40.451Z,41.73
2019-03-13T18:12:17.686Z,40.15
2019-03-13T18:14:54.405Z,41.53
2019-03-13T18:17:31.372Z,41.15
2019-03-13T18:20:09.492Z,41.28
2019-03-13T18:22:46.295Z,41.15
2019-03-13T18:25:22.688Z,41.40
2019-03-13T18:28:00.043Z,39.85
2019-03-13T18:30:36.683Z,41.33
2019-03-13T18:33:14.560Z,40.17
2019-03-13T18:35:51.355Z,39.03
2019-03-13T18:38:27.603Z,43.63
2019-03-13T18:41:04.546Z,41.53
2019-03-13T18:43:41.132Z,44.38
2019-03-13T18:46:17.978Z,43.68
2019-03-13T18:48:54.397Z,42.85
2019-03-13T18:51:31.328Z,44.30
2019-03-13T18:54:07.981Z,42.53
2019-03-13T18:56:45.000Z,44.15
2019-03-13T18:59:22.765Z,43.30
2019-03-13T19:01:59.416Z,44.83
2019-03-13T19:04:36.246Z,45.78
2019-03-13T19:07:12.960Z,45.67
2019-03-13T19:09:50.018Z,45.12
2019-03-13T19:12:26.881Z,46.53
2019-03-13T19:15:03.847Z,45.50
2019-03-13T19:17:40.783Z,44.75
2019-03-13T19:20:18.259Z,45.10
2019-03-13T19:22:56.158Z,46.00
2019-03-13T19:25:33.255Z,47.25
2019-03-13T19:28:10.030Z,46.75
2019-03-13T19:30:47.267Z,47.30
2019-03-13T19:33:25.199Z,46.00
2019-03-13T19:36:02.608Z,47.25
2019-03-13T19:38:41.235Z,45.80
2019-03-13T19:41:17.977Z,46.20
2019-03-13T19:43:54.562Z,47.60
2019-03-13T19:46:32.272Z,47.30
2019-03-13T19:49:09.095Z,48.17
2019-03-13T19:51:45.718Z,47.73
2019-03-13T19:54:22.677Z,45.20
2019-03-13T19:56:59.790Z,48.23
2019-03-13T19:59:37.227Z,45.63
2019-03-13T20:02:14.709Z,46.05
2019-03-13T20:04:51.736Z,47.27
2019-03-13T20:07:28.232Z,48.17
2019-03-13T20:10:06.249Z,46.85
2019-03-13T20:12:42.847Z,47.60
2019-03-13T20:15:21.089Z,47.93
2019-03-13T20:17:58.406Z,45.73
2019-03-13T20:20:34.614Z,48.95
2019-03-13T20:23:11.937Z,46.92
2019-03-13T20:25:49.289Z,48.80
2019-03-13T20:28:26.598Z,47.78
2019-03-13T20:31:03.416Z,48.98
2019-03-13T20:33:40.762Z,48.17
2019-03-13T20:36:17.658Z,47.65
2019-03-13T20:38:54.210Z,50.60
2019-03-13T20:41:31.178Z,51.10
2019-03-13T20:44:08.001Z,49.80
2019-03-13T20:46:45.095Z,50.70
2019-03-13T20:49:22.051Z,51.25
2019-03-13T20:51:58.786Z,50.75
2019-03-13T20:54:35.751Z,52.53
2019-03-13T20:57:12.494Z,51.68
2019-03-13T20:59:49.490Z,49.03
2019-03-13T21:02:26.618Z,50.17
2019-03-13T21:05:04.045Z,51.37
2019-03-13T21:07:41.907Z,50.90
2019-03-13T21:10:19.155Z,52.67
2019-03-13T21:12:56.782Z,57.45
2019-03-13T21:15:34.172Z,56.15
2019-03-13T21:18:10.958Z,53.83
2019-03-13T21:20:47.618Z,59.25
2019-03-13T21:23:24.359Z,59.80
2019-03-13T21:26:02.210Z,55.88
2019-03-13T21:28:39.275Z,59.30
2019-03-13T21:31:16.174Z,59.08
2019-03-13T21:33:52.965Z,59.08
2019-03-13T21:36:30.277Z,60.65
2019-03-13T21:39:08.019Z,64.55
2019-03-13T21:41:46.139Z,62.05
2019-03-13T21:44:22.841Z,60.88
2019-03-13T21:46:59.682Z,58.30
2019-03-13T21:49:36.154Z,88.20
2019-03-13T21:52:12.597Z,89.95
2019-03-13T21:54:51.953Z,96.25
2019-03-13T21:57:27.455Z,69.85
2019-03-13T22:00:03.784Z,79.07
2019-03-13T22:02:42.177Z,86.70
2019-03-13T22:05:25.679Z,84.05
2019-03-13T22:07:58.131Z,80.07
2019-03-13T22:10:34.805Z,83.58
2019-03-13T22:13:12.579Z,74.35
2019-03-13T22:15:49.165Z,78.90
2019-03-13T22:18:25.660Z,76.97
2019-03-13T22:21:02.357Z,77.75
2019-03-13T22:23:39.114Z,71.57
2019-03-13T22:26:16.089Z,67.55
2019-03-13T22:28:53.970Z,67.17
2019-03-13T22:31:30.454Z,68.20
2019-03-13T22:34:07.669Z,65.65
2019-03-13T22:36:44.706Z,63.83
2019-03-13T22:39:21.544Z,66.35
2019-03-13T22:41:58.364Z,64.17
2019-03-13T22:44:35.479Z,62.30
2019-03-13T22:47:12.295Z,61.00
2019-03-13T22:49:49.492Z,58.80
2019-03-13T22:52:25.973Z,59.03
2019-03-13T22:55:02.686Z,59.10
2019-03-13T22:57:39.455Z,60.08
2019-03-13T23:00:34.188Z,58.35
2019-03-13T23:03:11.880Z,58.38
2019-03-13T23:05:49.943Z,58.23
2019-03-13T23:08:26.599Z,59.10
2019-03-13T23:11:02.978Z,56.98
2019-03-13T23:13:39.906Z,60.83
2019-03-13T23:16:18.691Z,56.50
2019-03-13T23:18:55.869Z,59.90
2019-03-13T23:21:38.838Z,59.15
2019-03-13T23:24:15.629Z,57.48
2019-03-13T23:26:52.329Z,59.03
2019-03-13T23:29:29.226Z,58.90
2019-03-13T23:32:06.197Z,56.30
2019-03-13T23:34:42.792Z,69.57
2019-03-13T23:37:19.912Z,57.80
2019-03-13T23:39:56.479Z,64.37
2019-03-13T23:42:33.452Z,67.00
2019-03-13T23:45:10.501Z,75.95
2019-03-13T23:47:47.187Z,75.72
2019-03-13T23:50:25.042Z,88.82
2019-03-13T23:53:02.310Z,91.95
2019-03-13T23:55:39.199Z,88.07
2019-03-13T23:58:16.012Z,90.75
